Estaciones Metar próximas

 

LELL - Sabadell, Spain
Distancia a la estación: E 18km
Actualizado: 03/02/2023 07:00
Despejado
Despejado
 Viento del varies
Viento: varies 2 km/h
Temperatura: 0°C
Rocío: -2°C
Humedad: 87%
Barómetro: 1029 hPa
Resumen: Despejado
Visibilidad: greater than 10 km
2023/02/03 06:00 LELL 030600Z AUTO VRB01KT CAVOK 00/M02 Q1029
LEBL - Barcelona Airpor, Spain
Distancia a la estación: SSE 33km
Actualizado: 03/02/2023 07:00
Despejado
Despejado
 Viento del NO
Viento: NO 24 km/h
Temperatura: 5°C
Sensación Térmica: 1°C
Rocío: -1°C
Humedad: 66%
Barómetro: 1030 hPa
Resumen: Despejado
Visibilidad: greater than 10 km
2023/02/03 06:00 LEBL 030600Z 32013KT CAVOK 05/M01 Q1030 NOSIG
LERS - Reus (civ/Mil), Spain
Distancia a la estación: SO 75km
Actualizado: 03/02/2023 07:00
Despejado
Despejado
 Viento del varies
Viento: varies 2 km/h
Temperatura: 0°C
Rocío: -3°C
Humedad: 80%
Barómetro: 1030 hPa
Resumen: Despejado
Visibilidad: greater than 10 km
2023/02/03 06:00 LERS 030600Z VRB01KT CAVOK M00/M03 Q1030
 
LEGE - Gerona/Costa Bra, Spain
Distancia a la estación: ENE 83km
Actualizado: 03/02/2023 07:00
Despejado
Despejado
 Viento del O
Viento: O 6 km/h
Temperatura: -2°C
Rocío: -3°C
Humedad: 93%
Barómetro: 1029 hPa
Resumen: Despejado
Visibilidad: greater than 10 km
2023/02/03 06:00 LEGE 030600Z 27003KT 240V030 CAVOK M02/M03 Q1029
LFMP - Perpignan/Rivesa, France
Distancia a la estación: NNE 155km
Actualizado: 03/02/2023 07:30
Despejado
Despejado
 Viento del ONO
Viento: ONO 28 km/h
Temperatura: 11°C
Rocío: -4°C
Humedad: 35%
Barómetro: 1030 hPa
Resumen: Despejado
Visibilidad: greater than 10 km
2023/02/03 06:30 LFMP 030630Z AUTO 30015KT CAVOK 11/M04 Q1030 BECMG 31015G25KT
LFMK - Carcassonne/Salv, France
Distancia a la estación: N 191km
Actualizado: 03/02/2023 07:30
Despejado
Despejado
 Viento del OSO
Viento: OSO 20 km/h
Temperatura: 4°C
Sensación Térmica: -1°C
Rocío: 0°C
Humedad: 75%
Barómetro: 1033 hPa
Resumen: Despejado
Visibilidad: greater than 10 km
2023/02/03 06:30 LFMK 030630Z AUTO 25011KT CAVOK 04/00 Q1033 NOSIG
 
LEHC - Huesca-Pirineos, Spain
Distancia a la estación: ONO 193km
Actualizado: 03/02/2023 07:00
Despejado
Despejado
 Viento del N
Viento: N 6 km/h
Temperatura: -3°C
Rocío: -4°C
Humedad: 93%
Barómetro: 1030 hPa
Resumen: Despejado
Visibilidad: greater than 10 km
2023/02/03 06:00 LEHC 030600Z AUTO 01003KT CAVOK M03/M04 Q1030
LFMU - Beziers/Vias, France
Distancia a la estación: NNE 232km
Actualizado: 03/02/2023 07:30
Despejado
Despejado
 Viento del ONO
Viento: ONO 17 km/h
Temperatura: 4°C
Sensación Térmica: 0°C
Rocío: 0°C
Humedad: 75%
Barómetro: 1031 hPa
Resumen: Despejado
Visibilidad: greater than 10 km
2023/02/03 06:30 LFMU 030630Z AUTO 30009KT CAVOK 04/00 Q1031 NOSIG
LEPA - Palma De Mallorc, Spain
Distancia a la estación: SSE 233km
Actualizado: 03/02/2023 07:00
Nubes dispersas
Nubes dispersas
 Viento del varies
Viento: varies 2 km/h
Temperatura: 0°C
Rocío: 0°C
Humedad: 100%
Barómetro: 1029 hPa
Nubes: Nubes dispersas
Visibilidad: 10 km
Detalle Nubes: Nubes dispersas 762 m
2023/02/03 06:00 LEPA 030600Z VRB01KT 9999 FEW025 00/M00 Q1029 NOSIG
 
LFBO - Toulouse/Blagnac, France
Distancia a la estación: N 236km
Actualizado: 03/02/2023 07:30
Despejado
Despejado
 Viento del S
Viento: S 6 km/h
Temperatura: -2°C
Rocío: -3°C
Humedad: 93%
Barómetro: 1035 hPa
Resumen: Despejado
Visibilidad: greater than 10 km
2023/02/03 06:30 LFBO 030630Z AUTO 19003KT CAVOK M02/M03 Q1035 NOSIG
LFBT - Tarbes/Ossun, France
Distancia a la estación: NO 239km
Actualizado: 03/02/2023 07:00
Despejado
Despejado
 Viento del S
Viento: S 13 km/h
Temperatura: -2°C
Sensación Térmica: -7°C
Rocío: -3°C
Humedad: 93%
Barómetro: 1034 hPa
Resumen: Despejado
Visibilidad: greater than 10 km
2023/02/03 06:00 LFBT 030600Z AUTO 17007KT CAVOK M02/M03 Q1034 NOSIG
LEZG - Zaragoza (mil/Ci, Spain
Distancia a la estación: O 242km
Actualizado: 03/02/2023 07:00
Despejado
Despejado
 Viento del varies
Viento: varies 4 km/h
Temperatura: 0°C
Rocío: -3°C
Humedad: 80%
Barómetro: 1032 hPa
Resumen: Despejado
Visibilidad: greater than 10 km
2023/02/03 06:00 LEZG 030600Z VRB02KT CAVOK M00/M03 Q1032